Time;durP1;ratioP1;P1;durP2;ratioP2;P2;SDS_P1;SDS_P2;PMS_P1;PMS_P2;Temp;Humidity;BMP_temperature;BMP_pressure;BME280_temperature;BME280_humidity;BME280_pressure;Samples;Min_cycle;Max_cycle;Signal;HPM_P1;HPM_P2
2022/07/07 00:02:12;;;;;;;3.75;2.47;;;;;;;18.24;68.05;100996.66;5051290;28;20090;-54
2022/07/07 00:04:39;;;;;;;3.25;2.88;;;;;;;18.21;67.82;100981.81;5050015;28;20049;-52
2022/07/07 00:07:06;;;;;;;3.35;2.33;;;;;;;18.21;68.06;100978.38;5054432;28;20053;-53
2022/07/07 00:09:32;;;;;;;2.60;2.22;;;;;;;18.21;68.41;100979.22;5057829;28;20056;-49
2022/07/07 00:11:59;;;;;;;3.50;2.58;;;;;;;18.19;68.07;100983.63;5050525;28;20114;-51
2022/07/07 00:14:26;;;;;;;3.45;2.88;;;;;;;18.18;67.36;100984.53;5053693;28;20082;-53
2022/07/07 00:16:53;;;;;;;2.60;1.75;;;;;;;18.16;67.85;100991.56;5054132;28;21238;-50
2022/07/07 00:19:20;;;;;;;3.92;2.22;;;;;;;18.11;68.55;100989.00;5053803;28;20138;-50
2022/07/07 00:21:46;;;;;;;3.38;2.38;;;;;;;18.09;68.38;100982.06;5045973;28;20056;-51
2022/07/07 00:24:13;;;;;;;4.22;2.58;;;;;;;18.05;67.81;100973.38;5060219;28;20093;-50
2022/07/07 00:26:40;;;;;;;4.30;2.42;;;;;;;18.02;68.05;100985.66;5056738;28;20045;-49
2022/07/07 00:29:06;;;;;;;2.50;2.30;;;;;;;17.99;67.92;100982.22;5050554;28;20080;-50
2022/07/07 00:31:33;;;;;;;4.03;3.20;;;;;;;17.93;68.52;100969.22;5058222;28;20055;-50
2022/07/07 00:34:00;;;;;;;2.03;1.80;;;;;;;17.91;69.03;100960.56;5055123;28;20045;-54
2022/07/07 00:36:27;;;;;;;4.10;2.70;;;;;;;17.88;68.21;100976.31;5052324;28;20044;-55
2022/07/07 00:38:54;;;;;;;2.80;2.60;;;;;;;17.91;67.77;100994.63;5052922;28;20055;-51
2022/07/07 00:41:20;;;;;;;2.40;2.20;;;;;;;17.88;68.13;101007.78;5055323;28;20056;-54
2022/07/07 00:43:47;;;;;;;2.53;2.20;;;;;;;17.86;68.10;100999.06;5047112;28;20071;-54
2022/07/07 00:46:14;;;;;;;5.90;2.42;;;;;;;17.86;68.12;101004.28;5054088;28;20064;-54
2022/07/07 00:48:41;;;;;;;2.03;1.75;;;;;;;17.89;68.25;101019.97;5057062;28;20521;-49
2022/07/07 00:51:11;;;;;;;2.63;2.25;;;;;;;17.89;68.08;101008.63;5059987;28;20644;-48
2022/07/07 00:53:39;;;;;;;4.07;2.33;;;;;;;17.88;67.56;100986.81;5034200;28;20114;-52
2022/07/07 00:56:06;;;;;;;2.65;2.42;;;;;;;17.81;68.02;100956.34;5057192;28;20115;-53
2022/07/07 00:58:33;;;;;;;3.90;2.42;;;;;;;17.83;67.38;100962.41;5051734;28;20053;-55
2022/07/07 01:01:02;;;;;;;3.05;1.80;;;;;;;17.77;67.96;100988.75;5058340;28;20079;-57
2022/07/07 01:03:29;;;;;;;3.22;2.92;;;;;;;17.78;67.46;101017.56;5051855;28;20052;-51
2022/07/07 01:05:57;;;;;;;3.42;2.58;;;;;;;17.75;67.26;100993.13;5045660;28;20036;-56
2022/07/07 01:08:24;;;;;;;5.13;2.08;;;;;;;17.72;67.74;100955.66;5055622;28;20178;-55
2022/07/07 01:10:51;;;;;;;2.97;2.60;;;;;;;17.69;67.84;100958.31;5049494;28;20132;-55
2022/07/07 01:13:17;;;;;;;4.40;2.40;;;;;;;17.68;67.16;100974.94;5051035;28;20044;-48
2022/07/07 01:15:44;;;;;;;4.47;1.77;;;;;;;17.67;67.37;100975.78;5053372;28;20052;-49
2022/07/07 01:18:11;;;;;;;4.18;2.08;;;;;;;17.68;67.16;100969.69;5051797;28;20043;-52
2022/07/07 01:20:42;;;;;;;2.35;1.33;;;;;;;17.68;67.61;100968.81;5046645;28;20500;-48
2022/07/07 01:23:09;;;;;;;2.92;2.40;;;;;;;17.67;67.10;101003.78;5062623;28;20048;-47
2022/07/07 01:25:35;;;;;;;2.88;2.67;;;;;;;17.62;67.39;101010.84;5049621;28;20051;-50
2022/07/07 01:28:02;;;;;;;4.03;3.22;;;;;;;17.64;67.09;101012.56;5053022;28;20045;-49
2022/07/07 01:30:29;;;;;;;4.95;2.90;;;;;;;17.58;67.70;101002.16;5044868;28;20045;-52
2022/07/07 01:32:55;;;;;;;5.30;2.58;;;;;;;17.60;67.15;101003.03;5045898;28;20106;-51
2022/07/07 01:35:22;;;;;;;3.38;2.63;;;;;;;17.56;67.12;101024.91;5054293;28;20098;-49
2022/07/07 01:37:49;;;;;;;5.75;2.85;;;;;;;17.56;67.83;101022.28;5055819;28;20112;-50
2022/07/07 01:40:15;;;;;;;5.28;2.60;;;;;;;17.56;67.14;101025.75;5044221;28;20049;-48
2022/07/07 01:42:42;;;;;;;7.00;2.90;;;;;;;17.55;67.33;101025.78;5050983;28;20052;-48
2022/07/07 01:45:09;;;;;;;5.28;3.08;;;;;;;17.56;67.56;101022.28;5053400;28;20432;-50
2022/07/07 01:47:36;;;;;;;4.38;2.92;;;;;;;17.55;67.80;101026.66;5052670;28;20052;-52
2022/07/07 01:50:03;;;;;;;3.65;2.78;;;;;;;17.55;67.57;101025.78;5051713;28;20053;-47
2022/07/07 01:52:29;;;;;;;4.70;1.80;;;;;;;17.54;67.30;101031.91;5044791;28;20639;-50
2022/07/07 01:54:56;;;;;;;3.75;2.88;;;;;;;17.49;68.16;101018.03;5053519;28;20712;-48
2022/07/07 01:57:23;;;;;;;4.53;2.97;;;;;;;17.51;67.37;101024.97;5048158;28;20049;-49
2022/07/07 01:59:49;;;;;;;4.93;3.63;;;;;;;17.49;67.81;101025.91;5045022;28;20076;-48
2022/07/07 02:02:16;;;;;;;5.57;3.15;;;;;;;17.47;67.97;101029.38;5049895;28;20048;-50
2022/07/07 02:04:42;;;;;;;3.92;3.22;;;;;;;17.46;68.21;101032.91;5055716;28;20044;-48
2022/07/07 02:07:09;;;;;;;7.95;3.33;;;;;;;17.49;67.71;101041.63;5054944;28;20120;-47
2022/07/07 02:09:36;;;;;;;3.50;3.15;;;;;;;17.44;68.46;101037.31;5049575;28;20061;-52
2022/07/07 02:12:03;;;;;;;4.72;2.83;;;;;;;17.39;68.49;101046.97;5057196;28;20104;-47
2022/07/07 02:14:30;;;;;;;3.90;2.97;;;;;;;17.40;67.82;101048.72;5050055;28;20055;-48
2022/07/07 02:16:56;;;;;;;7.90;3.60;;;;;;;17.35;68.60;101055.75;5055573;28;20053;-48
2022/07/07 02:19:23;;;;;;;5.60;3.90;;;;;;;17.31;68.64;101054.09;5052572;28;20052;-49
2022/07/07 02:21:50;;;;;;;5.05;3.38;;;;;;;17.30;69.07;101058.44;5049610;28;20040;-48
2022/07/07 02:24:16;;;;;;;3.78;2.67;;;;;;;17.29;69.33;101042.78;5052524;28;20049;-49
2022/07/07 02:26:43;;;;;;;4.22;2.72;;;;;;;17.26;68.88;101055.91;5048559;28;20071;-52
2022/07/07 02:29:10;;;;;;;3.83;2.75;;;;;;;17.18;69.27;101049.03;5048027;28;20166;-50
2022/07/07 02:31:36;;;;;;;4.25;2.40;;;;;;;17.15;68.28;101064.78;5051502;28;20082;-49
2022/07/07 02:34:03;;;;;;;3.63;2.00;;;;;;;17.13;67.83;101065.69;5057282;28;20106;-52
2022/07/07 02:36:30;;;;;;;2.60;2.03;;;;;;;17.08;67.45;101058.78;5056833;28;20134;-54
2022/07/07 02:38:56;;;;;;;4.97;2.50;;;;;;;17.06;67.04;101052.69;5047201;28;20131;-49
2022/07/07 02:41:23;;;;;;;2.78;0.95;;;;;;;17.04;67.26;101061.41;5055726;28;20621;-51
2022/07/07 02:43:51;;;;;;;3.33;2.05;;;;;;;17.01;66.76;101067.56;5055979;28;20087;-48
2022/07/07 02:46:18;;;;;;;2.50;2.30;;;;;;;16.98;66.73;101078.06;5051011;28;20107;-51
2022/07/07 02:48:45;;;;;;;3.85;1.83;;;;;;;16.93;67.17;101083.34;5056595;28;20062;-55
2022/07/07 02:51:11;;;;;;;2.50;1.88;;;;;;;16.90;66.81;101083.41;5051217;28;20064;-51
2022/07/07 02:53:39;;;;;;;2.00;1.80;;;;;;;16.89;66.42;101089.50;5048922;28;20041;-50
2022/07/07 02:56:06;;;;;;;3.17;2.00;;;;;;;16.90;66.54;101087.75;5057322;28;20553;-51
2022/07/07 02:58:32;;;;;;;3.65;2.55;;;;;;;16.85;66.39;101090.41;5047376;28;20048;-49
2022/07/07 03:00:59;;;;;;;3.60;1.92;;;;;;;16.83;66.72;101105.28;5053737;28;20045;-51
2022/07/07 03:03:26;;;;;;;3.72;1.95;;;;;;;16.83;66.27;101094.81;5055114;28;20049;-49
2022/07/07 03:05:54;;;;;;;4.80;2.22;;;;;;;16.83;66.15;101105.28;5048671;28;20061;-51
2022/07/07 03:08:20;;;;;;;4.25;2.15;;;;;;;16.79;66.43;101106.22;5056381;28;20121;-51
2022/07/07 03:10:54;;;;;;;4.43;2.28;;;;;;;16.74;66.81;101110.59;5043984;28;20049;-51
2022/07/07 03:13:21;;;;;;;3.30;1.92;;;;;;;16.73;66.65;101115.00;5053999;28;20056;-48
2022/07/07 03:15:48;;;;;;;4.28;0.93;;;;;;;16.70;66.18;101112.41;5051137;28;20567;-50
2022/07/07 03:18:14;;;;;;;4.15;2.33;;;;;;;16.64;66.16;101121.19;5058819;28;20059;-51
2022/07/07 03:20:41;;;;;;;4.53;2.13;;;;;;;16.63;67.04;101118.59;5046522;28;20091;-48
2022/07/07 03:23:08;;;;;;;3.42;2.83;;;;;;;16.58;66.60;101110.78;5050774;28;20041;-52
2022/07/07 03:25:35;;;;;;;6.65;2.65;;;;;;;16.56;66.91;101117.78;5057000;28;20037;-48
2022/07/07 03:28:01;;;;;;;4.80;2.55;;;;;;;16.52;67.11;101116.09;5047921;28;20052;-52
2022/07/07 03:30:28;;;;;;;4.18;1.98;;;;;;;16.49;66.78;101121.34;5046613;28;20475;-51
2022/07/07 03:32:55;;;;;;;2.88;1.95;;;;;;;16.48;66.62;101119.63;5055942;28;20056;-50
2022/07/07 03:35:21;;;;;;;4.22;2.25;;;;;;;16.47;67.01;101118.75;5045759;28;20053;-48
2022/07/07 03:37:49;;;;;;;4.95;2.75;;;;;;;16.44;66.85;101124.00;5054385;28;20051;-51
2022/07/07 03:40:16;;;;;;;4.72;2.40;;;;;;;16.44;66.67;101132.72;5050164;28;20045;-47
2022/07/07 03:42:42;;;;;;;3.70;1.80;;;;;;;16.43;66.69;101136.22;5058563;28;20044;-49
2022/07/07 03:45:10;;;;;;;2.58;0.77;;;;;;;16.42;66.43;101131.84;5049043;28;20402;-50
2022/07/07 03:47:36;;;;;;;5.43;2.25;;;;;;;16.39;66.92;101137.13;5048537;28;20424;-51
2022/07/07 03:50:03;;;;;;;4.00;2.55;;;;;;;16.36;66.39;101131.94;5044102;28;20064;-49
2022/07/07 03:52:30;;;;;;;6.45;2.53;;;;;;;16.36;66.92;101126.72;5052948;28;20052;-49
2022/07/07 03:54:57;;;;;;;5.72;2.22;;;;;;;16.31;67.09;101145.03;5050153;28;20055;-49
2022/07/07 03:57:24;;;;;;;6.57;3.00;;;;;;;16.34;66.42;101144.13;5046794;28;20115;-49
2022/07/07 03:59:50;;;;;;;5.00;2.15;;;;;;;16.37;66.48;101154.56;5052652;28;20075;-47
2022/07/07 04:02:17;;;;;;;4.82;3.13;;;;;;;16.36;66.75;101147.63;5056419;28;20053;-46
2022/07/07 04:04:44;;;;;;;4.00;2.05;;;;;;;16.35;66.37;101145.88;5043480;28;20508;-47
2022/07/07 04:07:10;;;;;;;2.75;1.90;;;;;;;16.33;66.15;101147.66;5044381;28;20049;-48
2022/07/07 04:09:37;;;;;;;6.07;2.35;;;;;;;16.30;66.99;101143.31;5050046;28;20055;-47
2022/07/07 04:12:04;;;;;;;19.95;4.82;;;;;;;16.29;66.59;101151.16;5055299;28;20045;-47
2022/07/07 04:14:31;;;;;;;3.88;1.67;;;;;;;16.28;66.74;101152.91;5049672;28;20037;-49
2022/07/07 04:16:58;;;;;;;3.58;1.98;;;;;;;16.28;66.32;101158.13;5052473;28;20052;-49
2022/07/07 04:19:24;;;;;;;4.22;2.20;;;;;;;16.27;66.94;101161.63;5049608;28;20071;-49
2022/07/07 04:21:51;;;;;;;2.92;1.92;;;;;;;16.25;66.42;101165.16;5049325;28;20046;-50
2022/07/07 04:24:18;;;;;;;1.77;1.55;;;;;;;16.25;66.21;101175.59;5051721;28;20087;-51
2022/07/07 04:26:44;;;;;;;3.38;2.15;;;;;;;16.24;66.77;101173.88;5052798;28;20059;-49
2022/07/07 04:29:11;;;;;;;4.63;2.80;;;;;;;16.23;66.23;101182.56;5052862;28;20044;-53
2022/07/07 04:31:43;;;;;;;5.80;2.25;;;;;;;16.23;66.14;101187.81;5058706;28;20049;-52
2022/07/07 04:34:12;;;;;;;3.22;2.08;;;;;;;16.23;66.10;101187.81;5051812;28;20119;-50
2022/07/07 04:36:39;;;;;;;2.30;1.83;;;;;;;16.22;66.57;101194.81;5051574;28;20586;-50
2022/07/07 04:39:06;;;;;;;2.65;1.42;;;;;;;16.24;66.12;101195.63;5049444;28;20376;-49
2022/07/07 04:41:33;;;;;;;3.85;2.15;;;;;;;16.24;66.80;101200.88;5050041;28;20545;-50
2022/07/07 04:43:59;;;;;;;4.35;2.38;;;;;;;16.21;66.26;101202.66;5057736;28;20052;-50
2022/07/07 04:46:26;;;;;;;1.77;0.60;;;;;;;16.18;66.41;101207.00;5051546;28;20495;-49
2022/07/07 04:48:53;;;;;;;2.55;1.52;;;;;;;16.17;66.12;101210.50;5043984;28;20051;-49
2022/07/07 04:51:19;;;;;;;3.33;1.75;;;;;;;16.16;66.70;101214.00;5045370;28;20052;-47
2022/07/07 04:53:46;;;;;;;3.15;2.00;;;;;;;16.18;66.27;101211.38;5052811;28;20060;-50
2022/07/07 04:56:12;;;;;;;2.70;1.52;;;;;;;16.16;66.52;101216.63;5045897;28;20080;-52
2022/07/07 04:58:39;;;;;;;5.32;1.75;;;;;;;16.17;66.84;101220.97;5054252;28;20049;-51
2022/07/07 05:01:06;;;;;;;2.88;1.75;;;;;;;16.17;65.99;101220.09;5045670;28;20053;-48
2022/07/07 05:03:33;;;;;;;2.17;1.85;;;;;;;16.16;66.18;101224.47;5056355;28;20056;-50
2022/07/07 05:05:59;;;;;;;3.08;1.42;;;;;;;16.16;66.86;101219.22;5042587;28;20052;-49
2022/07/07 05:08:29;;;;;;;4.07;1.65;;;;;;;16.16;66.47;101227.06;5040997;28;20158;-48
2022/07/07 05:10:56;;;;;;;5.07;1.77;;;;;;;16.18;66.27;101232.28;5057469;28;20135;-50
2022/07/07 05:13:22;;;;;;;1.95;1.48;;;;;;;16.19;66.52;101234.88;5052764;28;20071;-48
2022/07/07 05:15:50;;;;;;;5.35;1.88;;;;;;;16.21;66.00;101247.09;5055008;28;20092;-50
2022/07/07 05:18:16;;;;;;;3.97;1.58;;;;;;;16.22;65.93;101248.81;5052283;28;20056;-50
2022/07/07 05:20:43;;;;;;;5.68;2.70;;;;;;;16.24;66.25;101247.06;5049433;28;20049;-52
2022/07/07 05:23:10;;;;;;;3.25;1.88;;;;;;;16.25;66.39;101256.63;5051542;28;20044;-48
2022/07/07 05:25:37;;;;;;;2.17;1.40;;;;;;;16.24;66.83;101252.28;5044093;28;20047;-49
2022/07/07 05:28:04;;;;;;;3.25;1.95;;;;;;;16.24;66.03;101267.97;5055773;28;20090;-48
2022/07/07 05:30:31;;;;;;;2.08;1.40;;;;;;;16.25;65.96;101259.25;5049904;28;20046;-48
2022/07/07 05:32:57;;;;;;;2.85;2.25;;;;;;;16.24;65.63;101262.75;5049703;28;20049;-48
2022/07/07 05:35:24;;;;;;;3.15;1.88;;;;;;;16.27;65.91;101267.94;5048773;28;20534;-48
2022/07/07 05:37:51;;;;;;;2.78;2.53;;;;;;;16.27;65.75;101267.94;5047629;28;20053;-53
2022/07/07 05:40:17;;;;;;;4.55;1.52;;;;;;;16.26;65.73;101271.44;5046174;28;20106;-52
2022/07/07 05:42:44;;;;;;;1.63;0.52;;;;;;;16.28;66.34;101274.91;5055206;28;20933;-49
2022/07/07 05:45:17;;;;;;;2.53;1.73;;;;;;;16.29;65.51;101277.53;5054713;28;20056;-49
2022/07/07 05:47:44;;;;;;;3.85;2.03;;;;;;;16.30;66.11;101284.47;5052776;28;20056;-48
2022/07/07 05:50:11;;;;;;;3.22;1.83;;;;;;;16.34;66.03;101285.31;5047724;28;20045;-49
2022/07/07 05:52:38;;;;;;;1.77;1.45;;;;;;;16.36;65.90;101293.16;5054736;28;20110;-48
2022/07/07 05:55:07;;;;;;;1.85;1.50;;;;;;;16.36;65.38;101291.41;5054611;28;20044;-48
2022/07/07 05:57:34;;;;;;;3.05;1.85;;;;;;;16.39;66.20;101299.25;5057528;28;20094;-50
2022/07/07 06:00:01;;;;;;;2.05;1.80;;;;;;;16.39;66.33;101304.47;5052859;28;20489;-48
2022/07/07 06:02:27;;;;;;;4.03;1.88;;;;;;;16.42;65.79;101303.56;5048182;28;20049;-47
2022/07/07 06:04:54;;;;;;;2.65;1.98;;;;;;;16.44;65.85;101312.25;5049967;28;20056;-48
2022/07/07 06:07:22;;;;;;;1.60;1.50;;;;;;;16.42;66.15;101314.88;5048380;28;20057;-48
2022/07/07 06:09:48;;;;;;;4.63;1.63;;;;;;;16.47;65.79;101317.47;5044663;28;20053;-49
2022/07/07 06:12:15;;;;;;;3.75;2.15;;;;;;;16.47;65.75;101313.97;5057881;28;20094;-48
2022/07/07 06:14:41;;;;;;;2.78;2.20;;;;;;;16.49;65.83;101320.09;5049614;28;20079;-48
2022/07/07 06:17:09;;;;;;;3.10;1.73;;;;;;;16.51;66.09;101323.56;5057786;28;20044;-51
2022/07/07 06:19:36;;;;;;;2.95;1.55;;;;;;;16.53;65.70;101321.78;5058583;28;20655;-49
2022/07/07 06:22:03;;;;;;;3.90;1.95;;;;;;;16.55;66.30;101335.75;5060676;28;20044;-48
2022/07/07 06:24:30;;;;;;;3.08;1.73;;;;;;;16.58;66.34;101341.81;5058019;28;20114;-49
2022/07/07 06:26:57;;;;;;;7.10;4.78;;;;;;;16.60;66.25;101341.81;5065791;28;20053;-51
2022/07/07 06:29:23;;;;;;;4.65;1.95;;;;;;;16.65;66.46;101342.63;5054201;28;20369;-50
2022/07/07 06:31:50;;;;;;;4.22;1.60;;;;;;;16.70;66.20;101350.44;5051052;28;20114;-49
2022/07/07 06:34:17;;;;;;;4.20;1.98;;;;;;;16.72;66.00;101353.06;5059970;28;20118;-50
2022/07/07 06:36:43;;;;;;;4.10;1.42;;;;;;;16.76;65.73;101357.38;5055516;28;20044;-50
2022/07/07 06:39:10;;;;;;;2.67;2.25;;;;;;;16.79;66.31;101349.53;5055070;28;20040;-48
2022/07/07 06:41:38;;;;;;;1.83;1.40;;;;;;;16.83;65.40;101356.47;5062635;28;20139;-48
2022/07/07 06:44:06;;;;;;;3.65;2.22;;;;;;;16.88;65.75;101359.06;5049358;28;20055;-48
2022/07/07 06:46:33;;;;;;;4.30;2.22;;;;;;;16.93;65.50;101363.34;5045582;28;20053;-49
2022/07/07 06:49:00;;;;;;;1.95;1.73;;;;;;;17.01;65.42;101360.66;5050219;28;20064;-49
2022/07/07 06:51:27;;;;;;;2.65;2.10;;;;;;;17.09;65.75;101363.22;5052104;28;20105;-49
2022/07/07 06:53:54;;;;;;;3.15;2.38;;;;;;;17.15;65.73;101373.66;5050346;28;20132;-51
2022/07/07 06:56:20;;;;;;;5.07;2.10;;;;;;;17.21;65.53;101373.63;5055280;28;20110;-49
2022/07/07 06:58:47;;;;;;;2.45;1.83;;;;;;;17.24;65.16;101371.84;5050143;28;20059;-50
2022/07/07 07:01:14;;;;;;;3.08;2.15;;;;;;;17.28;65.06;101378.78;5054612;28;20044;-48
2022/07/07 07:03:41;;;;;;;2.35;1.40;;;;;;;17.30;65.49;101372.63;5057009;28;20040;-50
2022/07/07 07:06:08;;;;;;;3.58;1.88;;;;;;;17.36;64.81;101379.56;5059073;28;20044;-52
2022/07/07 07:08:35;;;;;;;2.72;2.53;;;;;;;17.38;64.59;101380.44;5057254;28;20044;-50
2022/07/07 07:11:03;;;;;;;3.55;1.70;;;;;;;17.40;64.82;101385.66;5060128;28;20056;-47
2022/07/07 07:13:30;;;;;;;2.85;1.88;;;;;;;17.40;64.59;101383.91;5058381;28;20052;-48
2022/07/07 07:15:57;;;;;;;2.72;0.82;;;;;;;17.45;64.80;101387.34;5055409;28;20603;-53
2022/07/07 07:18:24;;;;;;;3.45;2.45;;;;;;;17.50;65.12;101389.06;5045190;28;20041;-48
2022/07/07 07:20:50;;;;;;;2.22;1.67;;;;;;;17.55;64.70;101397.72;5057625;28;20049;-47
2022/07/07 07:23:17;;;;;;;4.10;2.15;;;;;;;17.53;64.97;101389.03;5054851;28;20045;-52
2022/07/07 07:25:44;;;;;;;2.00;0.57;;;;;;;17.52;65.05;101397.75;5046989;28;20694;-47
2022/07/07 07:28:10;;;;;;;4.65;1.55;;;;;;;17.57;64.45;101402.06;5050968;28;20064;-51
2022/07/07 07:30:37;;;;;;;1.75;1.52;;;;;;;17.63;64.21;101411.59;5043252;28;20053;-48
2022/07/07 07:33:04;;;;;;;2.35;1.83;;;;;;;17.68;64.55;101409.81;5045024;28;20118;-49
2022/07/07 07:35:31;;;;;;;2.22;1.52;;;;;;;17.75;63.88;101415.84;5045197;28;20128;-50
2022/07/07 07:37:57;;;;;;;1.65;0.43;;;;;;;17.80;63.91;101418.44;5049898;28;20382;-48
2022/07/07 07:40:24;;;;;;;2.15;2.00;;;;;;;17.85;63.45;101421.88;5047550;28;20402;-52
2022/07/07 07:42:51;;;;;;;1.65;1.55;;;;;;;17.90;63.87;101434.94;5053520;28;20049;-51
2022/07/07 07:45:19;;;;;;;1.70;1.52;;;;;;;17.94;63.45;101427.00;5049730;28;20051;-47
2022/07/07 07:47:47;;;;;;;2.65;2.22;;;;;;;17.98;63.63;101428.72;5044529;28;20049;-49
2022/07/07 07:50:18;;;;;;;3.10;1.50;;;;;;;18.04;63.43;101426.91;5045378;28;20095;-50
2022/07/07 07:52:46;;;;;;;3.60;1.95;;;;;;;18.05;63.24;101428.63;5048994;28;20071;-47
2022/07/07 07:55:15;;;;;;;3.83;2.00;;;;;;;18.08;63.06;101428.59;5052434;28;20102;-50
2022/07/07 07:57:42;;;;;;;2.15;1.52;;;;;;;18.10;63.54;101422.47;5070398;28;20060;-47
2022/07/07 08:00:11;;;;;;;3.83;1.83;;;;;;;18.14;62.85;101425.94;5051992;28;20075;-47
2022/07/07 08:02:39;;;;;;;4.18;2.63;;;;;;;18.18;62.65;101430.25;5043619;28;20090;-53
2022/07/07 08:05:06;;;;;;;3.83;2.50;;;;;;;18.21;62.45;101432.81;5058300;28;20053;-50
2022/07/07 08:07:33;;;;;;;3.50;2.10;;;;;;;18.27;62.69;101439.75;5045832;28;20099;-48
2022/07/07 08:10:00;;;;;;;4.35;2.10;;;;;;;18.31;62.75;101435.34;5045484;28;20049;-50
2022/07/07 08:12:27;;;;;;;4.53;2.30;;;;;;;18.38;62.89;101439.63;5053364;28;20061;-47
2022/07/07 08:14:53;;;;;;;3.95;2.28;;;;;;;18.42;62.22;101443.94;5042613;28;20049;-48
2022/07/07 08:17:20;;;;;;;7.38;2.70;;;;;;;18.45;62.05;101438.66;5045940;28;20512;-48
2022/07/07 08:19:47;;;;;;;3.10;1.90;;;;;;;18.50;62.25;101443.81;5056302;28;20403;-50
2022/07/07 08:22:14;;;;;;;3.88;2.17;;;;;;;18.52;61.71;101454.28;5059791;28;20105;-49
2022/07/07 08:24:41;;;;;;;3.35;2.15;;;;;;;18.55;62.11;101451.63;5042857;28;20056;-47
2022/07/07 08:27:07;;;;;;;5.25;2.03;;;;;;;18.62;62.00;101453.28;5055799;28;20484;-47
2022/07/07 08:29:38;;;;;;;3.22;1.55;;;;;;;18.68;61.30;101454.97;5049751;28;20048;-51
2022/07/07 08:32:06;;;;;;;2.22;1.67;;;;;;;18.75;61.11;101460.09;5050535;28;20390;-47
2022/07/07 08:34:34;;;;;;;4.97;1.85;;;;;;;18.83;61.20;101460.00;5053376;28;20045;-48
2022/07/07 08:37:08;;;;;;;2.40;2.15;;;;;;;18.90;60.83;101455.50;5051846;28;20053;-48
2022/07/07 08:39:34;;;;;;;2.72;2.42;;;;;;;18.94;60.74;101457.19;5048567;28;20499;-47
2022/07/07 08:42:02;;;;;;;3.03;2.28;;;;;;;19.00;60.73;101461.47;5050253;28;20469;-48
2022/07/07 08:44:28;;;;;;;3.65;2.35;;;;;;;19.07;60.50;101473.66;5048123;28;20064;-51
2022/07/07 08:46:55;;;;;;;4.93;2.42;;;;;;;19.10;59.75;101471.00;5052099;28;20131;-51
2022/07/07 08:49:22;;;;;;;3.22;2.42;;;;;;;19.15;59.73;101470.91;5054530;28;20564;-49
2022/07/07 08:51:48;;;;;;;3.75;1.10;;;;;;;19.20;59.61;101473.47;5045911;28;20641;-47
2022/07/07 08:54:16;;;;;;;3.35;2.33;;;;;;;19.25;60.05;101472.50;5047122;28;20041;-51
2022/07/07 08:56:44;;;;;;;2.47;2.20;;;;;;;19.32;59.40;101477.66;5061476;28;20075;-52
2022/07/07 08:59:13;;;;;;;3.65;1.92;;;;;;;19.34;59.31;101487.25;5051511;28;20110;-51
2022/07/07 09:01:51;;;;;;;3.67;2.15;;;;;;;19.38;59.57;101488.91;5059670;28;20055;-48
2022/07/07 09:04:18;;;;;;;3.38;2.28;;;;;;;19.43;59.74;101488.84;5049494;28;20069;-49
2022/07/07 09:06:54;;;;;;;4.30;2.40;;;;;;;19.44;58.95;101495.84;5046197;28;20045;-48
2022/07/07 09:12:15;;;;;;;1.13;0.80;;;;;;;19.38;58.82;101503.81;5034937;27;20758;-49
2022/07/07 09:22:54;;;;;;;3.20;1.50;;;;;;;19.43;58.44;101517.75;5071384;27;20394;-49
2022/07/07 09:25:29;;;;;;;1.45;0.70;;;;;;;19.48;59.06;101522.91;5047042;28;20525;-49
2022/07/07 09:27:59;;;;;;;2.58;1.02;;;;;;;19.52;58.96;101525.47;5027170;28;20104;-47
2022/07/07 09:38:38;;;;;;;2.67;1.60;;;;;;;19.76;58.38;101531.19;5000778;28;20050;-47
2022/07/07 09:41:08;;;;;;;7.22;2.45;;;;;;;19.87;58.48;101538.03;4996357;28;20046;-48
2022/07/07 09:48:54;;;;;;;1.90;1.38;;;;;;;20.02;58.24;101537.78;5028196;27;20418;-47
2022/07/07 09:51:31;;;;;;;2.55;1.15;;;;;;;20.11;57.54;101546.41;4995585;28;20049;-48
2022/07/07 09:54:07;;;;;;;2.22;1.10;;;;;;;20.20;57.83;101540.97;5003653;28;20124;-47
2022/07/07 09:59:15;;;;;;;3.10;2.15;;;;;;;20.33;57.16;101540.72;5056709;27;20391;-47
2022/07/07 10:01:45;;;;;;;2.10;1.85;;;;;;;20.41;57.07;101544.06;4997322;28;20055;-49
2022/07/07 10:04:13;;;;;;;;;;;;;;;20.35;57.39;101547.69;4978361;28;20054;-50
2022/07/07 10:06:42;;;;;;;2.13;1.35;;;;;;;20.47;56.95;101550.97;4981669;28;20377;-49
2022/07/07 10:11:53;;;;;;;2.72;1.10;;;;;;;20.60;56.53;101560.34;5058316;27;20414;-50
2022/07/07 10:14:27;;;;;;;1.58;0.90;;;;;;;20.70;56.56;101558.38;5040444;28;20049;-49
2022/07/07 10:16:54;;;;;;;1.55;0.73;;;;;;;20.78;56.37;101561.69;5071576;28;20053;-49
2022/07/07 10:19:23;;;;;;;3.00;0.82;;;;;;;20.87;56.41;101570.34;5055390;28;20045;-48
2022/07/07 10:21:52;;;;;;;2.15;0.95;;;;;;;20.88;55.72;101569.44;5057381;28;20110;-55
2022/07/07 10:24:21;;;;;;;3.10;0.70;;;;;;;20.86;55.87;101566.81;5057126;28;20338;-47
2022/07/07 10:26:52;;;;;;;3.15;0.93;;;;;;;20.92;55.81;101571.13;5049960;28;20055;-46
2022/07/07 10:29:41;;;;;;;2.35;0.80;;;;;;;21.01;55.69;101570.91;5048343;28;20103;-50
2022/07/07 10:32:10;;;;;;;1.05;0.70;;;;;;;21.14;55.33;101570.66;5055129;28;20463;-48
2022/07/07 10:34:39;;;;;;;2.53;0.77;;;;;;;21.19;55.31;101568.75;5054918;28;20045;-47
2022/07/07 10:37:09;;;;;;;1.70;0.57;;;;;;;21.28;54.54;101570.31;5059613;28;20110;-50
2022/07/07 10:39:41;;;;;;;1.92;0.65;;;;;;;21.37;54.86;101574.50;5058556;28;20131;-48
2022/07/07 10:44:53;;;;;;;2.83;0.98;;;;;;;21.70;53.81;101582.50;5067300;27;20417;-50
2022/07/07 10:49:59;;;;;;;4.00;0.82;;;;;;;21.81;53.96;101582.25;5037439;28;21016;-50
2022/07/07 10:52:29;;;;;;;2.90;0.98;;;;;;;21.94;54.23;101599.50;5007700;28;20065;-49
2022/07/07 10:54:59;;;;;;;2.47;0.82;;;;;;;22.20;53.23;101584.75;5023717;28;20057;-47
2022/07/07 10:57:27;;;;;;;3.67;0.90;;;;;;;22.40;52.91;101587.72;5007553;28;20061;-49
2022/07/07 11:10:46;;;;;;;1.10;0.70;;;;;;;23.62;50.19;101593.81;5086119;27;20394;-47
2022/07/07 11:13:17;;;;;;;2.85;0.70;;;;;;;23.78;48.92;101598.56;5095327;28;20098;-49
2022/07/07 11:15:47;;;;;;;2.10;0.90;;;;;;;23.95;49.14;101595.31;5082696;28;20510;-49
2022/07/07 11:18:17;;;;;;;1.58;0.80;;;;;;;24.03;48.70;101596.84;5078489;28;20056;-50
2022/07/07 11:21:00;;;;;;;1.65;0.75;;;;;;;23.94;48.39;101598.06;5082497;28;20079;-46
2022/07/07 11:23:47;;;;;;;3.15;0.70;;;;;;;23.75;48.46;101603.97;5094905;28;20047;-46
2022/07/07 11:26:15;;;;;;;1.48;0.90;;;;;;;23.80;48.90;101601.16;5088032;28;20047;-48
2022/07/07 11:28:48;;;;;;;1.70;0.70;;;;;;;23.98;47.95;101603.16;5083440;27;20552;-50
2022/07/07 11:31:15;;;;;;;0.85;0.70;;;;;;;24.16;48.26;101602.59;5082067;28;20053;-48
2022/07/07 11:33:49;;;;;;;1.15;0.85;;;;;;;24.18;47.49;101603.44;5081403;28;20051;-49
2022/07/07 11:36:23;;;;;;;0.95;0.57;;;;;;;24.32;47.92;101613.53;5074720;28;20040;-48
2022/07/07 11:38:55;;;;;;;2.03;0.93;;;;;;;24.50;46.70;101611.97;5084214;28;20047;-46
2022/07/07 11:41:37;;;;;;;1.85;0.98;;;;;;;24.43;46.22;101621.06;5079062;28;20817;-50
2022/07/07 11:44:04;;;;;;;8.95;1.90;;;;;;;24.27;45.93;101611.03;5082571;28;20480;-47
2022/07/07 11:46:31;;;;;;;4.25;0.63;;;;;;;24.20;46.72;101620.09;5079137;28;20043;-47
2022/07/07 11:48:58;;;;;;;0.80;0.63;;;;;;;24.11;46.54;101630.09;5083827;28;20044;-46
2022/07/07 11:51:29;;;;;;;1.73;0.70;;;;;;;24.03;46.67;101621.53;5083372;28;20547;-50
2022/07/07 11:53:59;;;;;;;1.05;0.65;;;;;;;23.95;46.47;101620.94;5081285;27;20045;-51
2022/07/07 11:56:29;;;;;;;1.98;0.77;;;;;;;23.85;46.89;101620.38;5090720;27;20130;-47
2022/07/07 11:58:58;;;;;;;2.53;0.90;;;;;;;23.74;47.27;101623.38;5082215;28;20044;-49
2022/07/07 12:01:29;;;;;;;0.82;0.47;;;;;;;23.77;47.22;101628.56;5088746;28;20143;-49
2022/07/07 12:03:56;;;;;;;5.07;0.80;;;;;;;23.98;46.90;101626.13;5083313;28;20040;-49
2022/07/07 12:06:27;;;;;;;1.17;0.47;;;;;;;24.18;46.81;101627.25;5084487;28;20097;-47
2022/07/07 12:08:56;;;;;;;1.77;0.82;;;;;;;24.28;46.97;101623.34;5088352;28;20044;-48
2022/07/07 12:11:23;;;;;;;2.95;1.35;;;;;;;24.32;46.80;101614.38;5085032;28;20055;-49
2022/07/07 12:13:51;;;;;;;1.95;0.85;;;;;;;24.44;46.53;101614.84;5079861;27;20100;-47